Ashland, Nebraska
Current Conditions -  °F | °C
As of 11:15 PM on Thursday 30 Oct 2014 (Local Time) from KMLE Reporting Station
Overcast Overcast  
Wind Chill:   Ceiling: 2700
Heat Index:   Visibility: 10mi
Dew Point:   Wind: 12mph
Humidity: 67%   Direction: 360°N
Pressure: 30.36"   Gusts: 23mph
Location:  41.04°N, 96.37°W
Report Text: KMLE 310415Z AUTO 36010G20KT 320V020 10SM OVC027 07/01 A3036 RMK AO2 T00710014
Loading
Personal Weather Stations






























Interactive Weather Map
Tropical Storm Tracking
New forecast layout! Learn more

10-Day Weather Forecast

Advertisements
Track Severe Weather on mobile